createdAt,value
2018-06-21T00:00:54.295Z,92.90
2018-06-21T00:01:54.296Z,93.09
2018-06-21T00:02:54.302Z,93.15
2018-06-21T00:03:54.299Z,93.15
2018-06-21T00:04:54.300Z,92.66
2018-06-21T00:05:54.300Z,93.33
2018-06-21T00:06:54.296Z,92.85
2018-06-21T00:07:54.295Z,92.57
2018-06-21T00:08:54.295Z,93.05
2018-06-21T00:09:54.295Z,93.72
2018-06-21T00:10:54.300Z,93.43
2018-06-21T00:11:54.299Z,93.05
2018-06-21T00:12:54.294Z,93.53
2018-06-21T00:13:54.295Z,93.91
2018-06-21T00:14:54.299Z,94.49
2018-06-21T00:15:54.299Z,94.59
2018-06-21T00:16:54.300Z,94.10
2018-06-21T00:17:54.298Z,93.62
2018-06-21T00:18:54.295Z,94.10
2018-06-21T00:19:54.297Z,93.43
2018-06-21T00:20:54.294Z,94.49
2018-06-21T00:21:54.294Z,94.68
2018-06-21T00:22:54.298Z,93.77
2018-06-21T00:23:54.298Z,94.64
2018-06-21T00:24:54.298Z,93.68
2018-06-21T00:25:54.297Z,93.87
2018-06-21T00:26:54.293Z,94.45
2018-06-21T00:27:54.292Z,94.45
2018-06-21T00:28:54.295Z,94.35
2018-06-21T00:29:54.295Z,94.35
2018-06-21T00:30:54.292Z,94.64
2018-06-21T00:31:54.289Z,94.73
2018-06-21T00:32:54.290Z,94.25
2018-06-21T00:33:54.292Z,94.35
2018-06-21T00:34:54.296Z,94.15
2018-06-21T00:35:54.293Z,95.12
2018-06-21T00:36:54.293Z,94.25
2018-06-21T00:37:54.291Z,94.15
2018-06-21T00:38:54.288Z,94.01
2018-06-21T00:39:54.287Z,94.49
2018-06-21T00:40:54.287Z,94.78
2018-06-21T00:41:54.287Z,95.26
2018-06-21T00:42:54.290Z,94.88
2018-06-21T00:43:54.290Z,95.26
2018-06-21T00:44:54.284Z,95.75
2018-06-21T00:45:54.285Z,95.94
2018-06-21T00:46:54.289Z,96.22
2018-06-21T00:47:54.287Z,96.03
2018-06-21T00:48:54.286Z,95.65
2018-06-21T00:49:54.286Z,95.45
2018-06-21T00:50:54.283Z,96.03
2018-06-21T00:51:54.284Z,95.55
2018-06-21T00:52:54.279Z,95.55
2018-06-21T00:53:54.282Z,95.50
2018-06-21T00:54:54.282Z,95.79
2018-06-21T00:55:54.282Z,96.17
2018-06-21T00:56:54.282Z,96.94
2018-06-21T00:57:54.282Z,96.37
2018-06-21T00:58:54.276Z,96.75
2018-06-21T00:59:54.275Z,96.27
2018-06-21T01:00:54.280Z,96.37
2018-06-21T01:01:54.285Z,96.85
2018-06-21T01:02:54.278Z,96.37
2018-06-21T01:03:54.272Z,96.47
2018-06-21T01:04:54.271Z,96.85
2018-06-21T01:05:54.271Z,96.75
2018-06-21T01:06:54.275Z,97.14
2018-06-21T01:07:54.276Z,96.85
2018-06-21T01:08:54.274Z,97.33
2018-06-21T01:09:54.273Z,97.52
2018-06-21T01:10:54.268Z,96.94
2018-06-21T01:11:54.267Z,97.14
2018-06-21T01:12:54.266Z,97.14
2018-06-21T01:13:54.265Z,97.42
2018-06-21T01:14:54.270Z,97.42
2018-06-21T01:15:54.267Z,97.33
2018-06-21T01:16:54.262Z,97.24
2018-06-21T01:17:54.262Z,97.42
2018-06-21T01:18:54.265Z,97.91
2018-06-21T01:19:54.265Z,97.24
2018-06-21T01:20:54.265Z,97.14
2018-06-21T01:21:54.267Z,97.14
2018-06-21T01:22:54.260Z,97.42
2018-06-21T01:23:54.256Z,97.14
2018-06-21T01:24:54.256Z,97.33
2018-06-21T01:25:54.259Z,97.33
2018-06-21T01:26:54.263Z,97.33
2018-06-21T01:27:54.257Z,97.04
2018-06-21T01:28:54.257Z,97.47
2018-06-21T01:29:54.257Z,97.28
2018-06-21T01:30:54.250Z,97.09
2018-06-21T01:31:54.251Z,97.33
2018-06-21T01:32:54.256Z,97.09
2018-06-21T01:33:54.253Z,97.24
2018-06-21T01:34:54.247Z,97.57
2018-06-21T01:35:54.245Z,97.47
2018-06-21T01:36:54.245Z,97.76
2018-06-21T01:37:54.243Z,97.33
2018-06-21T01:38:54.247Z,97.47
2018-06-21T01:39:54.245Z,97.38
2018-06-21T01:40:54.246Z,96.51
2018-06-21T01:41:54.244Z,97.47
2018-06-21T01:42:54.239Z,97.38
2018-06-21T01:43:54.241Z,97.19
2018-06-21T01:44:54.236Z,97.38
2018-06-21T01:45:54.234Z,96.80
2018-06-21T01:46:54.239Z,97.19
2018-06-21T01:47:54.238Z,97.09
2018-06-21T01:48:54.236Z,97.09
2018-06-21T01:49:54.231Z,97.47
2018-06-21T01:50:54.235Z,97.62
2018-06-21T01:51:54.236Z,97.19
2018-06-21T01:52:54.234Z,97.09
2018-06-21T01:53:54.232Z,98.10
2018-06-21T01:54:54.226Z,97.52
2018-06-21T01:55:54.225Z,97.57
2018-06-21T01:56:54.224Z,97.19
2018-06-21T01:57:54.222Z,97.28
2018-06-21T01:58:54.227Z,97.57
2018-06-21T01:59:54.226Z,98.14
2018-06-21T02:00:54.223Z,98.05
2018-06-21T02:01:54.226Z,98.14
2018-06-21T02:02:54.218Z,98.14
2018-06-21T02:03:54.216Z,98.14
2018-06-21T02:04:54.219Z,97.66
2018-06-21T02:05:54.217Z,98.34
2018-06-21T02:06:54.212Z,97.47
2018-06-21T02:07:54.210Z,97.57
2018-06-21T02:08:54.210Z,97.28
2018-06-21T02:09:54.219Z,97.57
2018-06-21T02:10:54.213Z,97.09
2018-06-21T02:11:54.215Z,97.09
2018-06-21T02:12:54.210Z,96.99
2018-06-21T02:13:54.211Z,97.28
2018-06-21T02:14:54.204Z,97.19
2018-06-21T02:15:54.202Z,96.80
2018-06-21T02:16:54.200Z,97.09
2018-06-21T02:17:54.200Z,97.09
2018-06-21T02:18:54.204Z,96.89
2018-06-21T02:19:54.202Z,97.09
2018-06-21T02:20:54.197Z,97.38
2018-06-21T02:21:54.195Z,98.14
2018-06-21T02:22:54.199Z,98.14
2018-06-21T02:23:54.197Z,97.86
2018-06-21T02:24:54.196Z,98.34
2018-06-21T02:25:54.195Z,98.14
2018-06-21T02:26:54.190Z,98.34
2018-06-21T02:27:54.188Z,98.91
2018-06-21T02:28:54.186Z,99.10
2018-06-21T02:29:54.186Z,99.10
2018-06-21T02:30:54.191Z,98.14
2018-06-21T02:31:54.188Z,98.63
2018-06-21T02:32:54.186Z,98.43
2018-06-21T02:33:54.184Z,98.34
2018-06-21T02:34:54.180Z,99.10
2018-06-21T02:35:54.177Z,98.77
2018-06-21T02:36:54.180Z,98.96
2018-06-21T02:37:54.179Z,98.67
2018-06-21T02:38:54.173Z,99.25
2018-06-21T02:39:54.172Z,98.77
2018-06-21T02:40:54.172Z,98.67
2018-06-21T02:41:54.170Z,98.86
2018-06-21T02:42:54.175Z,99.25
2018-06-21T02:43:54.173Z,98.67
2018-06-21T02:44:54.169Z,99.05
2018-06-21T02:45:54.169Z,98.67
2018-06-21T02:46:54.165Z,99.15
2018-06-21T02:47:54.162Z,99.63
2018-06-21T02:48:54.160Z,99.25
2018-06-21T02:49:54.159Z,99.92
2018-06-21T02:50:54.163Z,99.82
2018-06-21T02:51:54.161Z,99.82
2018-06-21T02:52:54.153Z,99.82
2018-06-21T02:53:54.175Z,99.92
2018-06-21T02:54:54.157Z,99.99
2018-06-21T02:55:54.156Z,99.92
2018-06-21T02:56:54.153Z,99.73
2018-06-21T02:57:54.151Z,99.99
2018-06-21T02:58:54.146Z,99.99
2018-06-21T02:59:54.144Z,99.92
2018-06-21T03:00:54.141Z,99.99
2018-06-21T03:01:54.143Z,99.99
2018-06-21T03:02:54.144Z,99.99
2018-06-21T03:03:54.194Z,99.99
2018-06-21T03:04:54.144Z,99.99
2018-06-21T03:05:54.140Z,99.99
2018-06-21T03:06:54.138Z,99.99
2018-06-21T03:07:54.131Z,99.99
2018-06-21T03:08:54.135Z,99.54
2018-06-21T03:09:54.134Z,99.82
2018-06-21T03:10:54.129Z,99.82
2018-06-21T03:11:54.126Z,99.87
2018-06-21T03:12:54.127Z,99.58
2018-06-21T03:13:54.123Z,99.30
2018-06-21T03:14:54.126Z,99.30
2018-06-21T03:15:54.125Z,98.91
2018-06-21T03:16:54.124Z,98.91
2018-06-21T03:17:54.122Z,98.82
2018-06-21T03:18:54.116Z,98.91
2018-06-21T03:19:54.113Z,98.53
2018-06-21T03:20:54.112Z,98.14
2018-06-21T03:21:54.111Z,98.34
2018-06-21T03:22:54.116Z,97.57
2018-06-21T03:23:54.112Z,97.66
2018-06-21T03:24:54.109Z,97.86
2018-06-21T03:25:54.106Z,97.96
2018-06-21T03:26:54.110Z,97.96
2018-06-21T03:27:54.107Z,98.24
2018-06-21T03:28:54.105Z,97.09
2018-06-21T03:29:54.104Z,97.57
2018-06-21T03:30:54.099Z,97.96
2018-06-21T03:31:54.099Z,97.28
2018-06-21T03:32:54.096Z,97.86
2018-06-21T03:33:54.094Z,97.47
2018-06-21T03:34:54.097Z,97.19
2018-06-21T03:35:54.095Z,97.57
2018-06-21T03:36:54.095Z,97.76
2018-06-21T03:37:54.094Z,97.96
2018-06-21T03:38:54.088Z,98.34
2018-06-21T03:39:54.086Z,98.24
2018-06-21T03:40:54.089Z,98.05
2018-06-21T03:41:54.088Z,98.14
2018-06-21T03:42:54.082Z,97.57
2018-06-21T03:43:54.084Z,97.28
2018-06-21T03:44:54.079Z,97.19
2018-06-21T03:45:54.077Z,97.28
2018-06-21T03:46:54.080Z,97.09
2018-06-21T03:47:54.077Z,97.04
2018-06-21T03:48:54.076Z,97.09
2018-06-21T03:49:54.078Z,96.70
2018-06-21T03:50:54.073Z,97.19
2018-06-21T03:51:54.069Z,97.62
2018-06-21T03:52:54.068Z,96.47
2018-06-21T03:53:54.070Z,96.75
2018-06-21T03:54:54.071Z,97.52
2018-06-21T03:55:54.069Z,96.94
2018-06-21T03:56:54.062Z,96.85
2018-06-21T03:57:54.061Z,96.56
2018-06-21T03:58:54.064Z,96.94
2018-06-21T03:59:54.062Z,96.94
2018-06-21T04:00:54.061Z,97.52
2018-06-21T04:01:54.060Z,97.24
2018-06-21T04:02:54.057Z,97.52
2018-06-21T04:03:54.053Z,96.47
2018-06-21T04:04:54.050Z,96.94
2018-06-21T04:05:54.051Z,96.85
2018-06-21T04:06:54.054Z,96.75
2018-06-21T04:07:54.052Z,96.47
2018-06-21T04:08:54.052Z,96.37
2018-06-21T04:09:54.052Z,96.37
2018-06-21T04:10:54.045Z,96.27
2018-06-21T04:11:54.043Z,96.17
2018-06-21T04:12:54.048Z,96.03
2018-06-21T04:13:54.046Z,95.75
2018-06-21T04:14:54.040Z,95.65
2018-06-21T04:15:54.039Z,95.65
2018-06-21T04:16:54.038Z,95.55
2018-06-21T04:17:54.038Z,94.98
2018-06-21T04:18:54.041Z,94.59
2018-06-21T04:19:54.039Z,95.17
2018-06-21T04:20:54.039Z,95.07
2018-06-21T04:21:54.037Z,94.30
2018-06-21T04:22:54.033Z,94.68
2018-06-21T04:23:54.032Z,94.01
2018-06-21T04:24:54.031Z,94.11
2018-06-21T04:25:54.031Z,94.64
2018-06-21T04:26:54.034Z,94.64
2018-06-21T04:27:54.036Z,94.06
2018-06-21T04:28:54.031Z,94.25
2018-06-21T04:29:54.027Z,94.35
2018-06-21T04:30:54.037Z,94.15
2018-06-21T04:31:54.033Z,94.45
2018-06-21T04:32:54.033Z,94.25
2018-06-21T04:33:54.033Z,93.96
2018-06-21T04:34:54.023Z,93.87
2018-06-21T04:35:54.023Z,94.25
2018-06-21T04:36:54.024Z,94.64
2018-06-21T04:37:54.038Z,93.77
2018-06-21T04:38:54.024Z,94.54
2018-06-21T04:39:54.026Z,94.45
2018-06-21T04:40:54.026Z,94.35
2018-06-21T04:41:54.028Z,93.87
2018-06-21T04:42:54.020Z,94.64
2018-06-21T04:43:54.018Z,94.54
2018-06-21T04:44:54.025Z,94.35
2018-06-21T04:45:54.128Z,93.68
2018-06-21T04:46:54.019Z,94.06
2018-06-21T04:47:54.016Z,94.54
2018-06-21T04:48:54.015Z,94.35
2018-06-21T04:49:54.016Z,94.64
2018-06-21T04:50:54.020Z,94.35
2018-06-21T04:51:54.018Z,94.35
2018-06-21T04:52:54.019Z,94.35
2018-06-21T04:53:54.019Z,94.45
2018-06-21T04:54:54.013Z,94.35
2018-06-21T04:55:54.013Z,93.77
2018-06-21T04:56:54.012Z,94.15
2018-06-21T04:57:54.012Z,93.87
2018-06-21T04:58:54.016Z,94.45
2018-06-21T04:59:54.015Z,94.54
2018-06-21T05:00:54.011Z,94.54
2018-06-21T05:01:54.011Z,94.35
2018-06-21T05:02:54.015Z,94.64
2018-06-21T05:03:54.014Z,94.73
2018-06-21T05:04:54.013Z,94.64
2018-06-21T05:05:54.013Z,95.21
2018-06-21T05:06:54.008Z,94.54
2018-06-21T05:07:54.007Z,94.45
2018-06-21T05:08:54.007Z,94.83
2018-06-21T05:09:54.007Z,94.98
2018-06-21T05:10:54.012Z,95.36
2018-06-21T05:11:54.011Z,95.65
2018-06-21T05:12:54.009Z,95.31
2018-06-21T05:13:54.008Z,95.55
2018-06-21T05:14:54.005Z,95.55
2018-06-21T05:15:54.004Z,95.84
2018-06-21T05:16:54.008Z,95.55
2018-06-21T05:17:54.007Z,96.13
2018-06-21T05:18:54.003Z,96.42
2018-06-21T05:19:54.004Z,95.75
2018-06-21T05:20:54.001Z,95.94
2018-06-21T05:21:54.001Z,96.32
2018-06-21T05:22:54.009Z,96.32
2018-06-21T05:23:54.004Z,95.94
2018-06-21T05:24:53.994Z,96.32
2018-06-21T05:25:54.004Z,96.32
2018-06-21T05:26:53.998Z,96.22
2018-06-21T05:27:53.986Z,96.80
2018-06-21T05:28:53.986Z,96.80
2018-06-21T05:29:53.986Z,96.99
2018-06-21T05:30:53.991Z,96.61
2018-06-21T05:31:53.989Z,96.80
2018-06-21T05:32:53.983Z,96.70
2018-06-21T05:33:53.983Z,96.90
2018-06-21T05:34:53.986Z,96.94
2018-06-21T05:35:53.985Z,96.99
2018-06-21T05:36:53.986Z,96.94
2018-06-21T05:37:53.986Z,96.37
2018-06-21T05:38:53.980Z,96.66
2018-06-21T05:39:53.981Z,96.80
2018-06-21T05:40:53.978Z,96.61
2018-06-21T05:41:53.977Z,96.42
2018-06-21T05:42:53.981Z,96.51
2018-06-21T05:43:53.983Z,96.61
2018-06-21T05:44:53.979Z,96.80
2018-06-21T05:45:53.978Z,96.42
2018-06-21T05:46:53.974Z,97.47
2018-06-21T05:47:53.972Z,97.38
2018-06-21T05:48:53.977Z,97.09
2018-06-21T05:49:53.976Z,98.44
2018-06-21T05:50:53.977Z,98.24
2018-06-21T05:51:53.970Z,98.14
2018-06-21T05:52:53.970Z,98.91
2018-06-21T05:53:53.969Z,98.82
2018-06-21T05:54:53.974Z,99.98
2018-06-21T05:55:53.972Z,99.99
2018-06-21T05:56:53.972Z,99.99
2018-06-21T05:57:53.970Z,99.99
2018-06-21T05:58:53.965Z,99.99
2018-06-21T05:59:53.963Z,99.99
2018-06-21T06:00:53.964Z,99.99
2018-06-21T06:01:53.979Z,99.99
2018-06-21T06:02:53.968Z,99.99
2018-06-21T06:03:53.968Z,99.99
2018-06-21T06:04:53.964Z,99.99
2018-06-21T06:05:53.961Z,99.99
2018-06-21T06:06:53.965Z,99.99
2018-06-21T06:07:53.962Z,99.99
2018-06-21T06:08:53.961Z,99.99
2018-06-21T06:09:53.961Z,99.99
2018-06-21T06:10:53.956Z,99.99
2018-06-21T06:11:53.954Z,99.99
2018-06-21T06:12:53.954Z,99.99
2018-06-21T06:13:53.953Z,99.99
2018-06-21T06:14:53.957Z,99.99
2018-06-21T06:15:53.955Z,99.99
2018-06-21T06:16:53.955Z,99.99
2018-06-21T06:17:53.955Z,99.99
2018-06-21T06:18:53.951Z,99.99
2018-06-21T06:19:53.982Z,99.99
2018-06-21T06:20:53.951Z,99.99
2018-06-21T06:21:53.951Z,99.99
2018-06-21T06:22:53.945Z,99.99
2018-06-21T06:23:53.945Z,99.99
2018-06-21T06:24:53.944Z,99.99
2018-06-21T06:25:53.942Z,99.99
2018-06-21T06:26:53.947Z,99.99
2018-06-21T06:27:53.945Z,99.99
2018-06-21T06:28:53.945Z,99.99
2018-06-21T06:29:53.945Z,99.99
2018-06-21T06:30:53.940Z,99.99
2018-06-21T06:31:53.938Z,99.99
2018-06-21T06:32:53.938Z,99.99
2018-06-21T06:33:53.937Z,99.99
2018-06-21T06:34:53.941Z,99.99
2018-06-21T06:35:53.941Z,99.99
2018-06-21T06:36:53.935Z,99.99
2018-06-21T06:37:53.935Z,99.99
2018-06-21T06:38:53.939Z,99.99
2018-06-21T06:39:53.939Z,99.99
2018-06-21T06:40:53.936Z,99.99
2018-06-21T06:41:53.936Z,99.99
2018-06-21T06:42:53.932Z,99.99
2018-06-21T06:43:53.930Z,99.99
2018-06-21T06:44:53.929Z,99.99
2018-06-21T06:45:53.929Z,99.99
2018-06-21T06:46:53.935Z,99.99
2018-06-21T06:47:53.935Z,99.99
2018-06-21T06:48:53.932Z,99.73
2018-06-21T06:49:53.933Z,99.49
2018-06-21T06:50:53.927Z,99.98
2018-06-21T06:51:53.969Z,98.34
2018-06-21T06:52:53.933Z,98.34
2018-06-21T06:53:53.931Z,98.14
2018-06-21T06:54:53.928Z,98.44
2018-06-21T06:55:53.926Z,97.96
2018-06-21T06:56:53.926Z,98.14
2018-06-21T06:57:53.929Z,97.28
2018-06-21T06:58:53.930Z,97.33
2018-06-21T06:59:53.931Z,96.94
2018-06-21T07:00:53.932Z,95.89
2018-06-21T07:01:53.931Z,95.69
2018-06-21T07:02:53.928Z,95.45
2018-06-21T07:03:53.941Z,94.54
2018-06-21T07:04:53.930Z,93.81
2018-06-21T07:05:53.929Z,93.09
2018-06-21T07:06:53.933Z,92.56
2018-06-21T07:07:53.933Z,91.88
2018-06-21T07:08:53.930Z,92.08
2018-06-21T07:09:53.932Z,92.50
2018-06-21T07:10:53.936Z,90.77
2018-06-21T07:11:53.936Z,90.33
2018-06-21T07:12:53.940Z,89.75
2018-06-21T07:13:53.942Z,88.98
2018-06-21T07:14:53.938Z,88.31
2018-06-21T07:15:53.940Z,88.31
2018-06-21T07:16:53.940Z,87.15
2018-06-21T07:17:53.942Z,87.44
2018-06-21T07:18:53.949Z,87.78
2018-06-21T07:19:53.951Z,87.59
2018-06-21T07:20:53.951Z,87.30
2018-06-21T07:21:53.954Z,87.78
2018-06-21T07:22:53.952Z,87.64
2018-06-21T07:23:53.954Z,88.31
2018-06-21T07:24:53.959Z,88.70
2018-06-21T07:25:53.961Z,88.27
2018-06-21T07:26:53.959Z,88.51
2018-06-21T07:27:53.961Z,88.85
2018-06-21T07:28:53.962Z,88.65
2018-06-21T07:29:53.964Z,88.71
2018-06-21T07:30:53.972Z,88.61
2018-06-21T07:31:53.971Z,88.13
2018-06-21T07:32:53.974Z,88.51
2018-06-21T07:33:53.974Z,87.80
2018-06-21T07:34:53.972Z,88.28
2018-06-21T07:35:53.972Z,88.47
2018-06-21T07:36:53.973Z,88.04
2018-06-21T07:37:53.974Z,88.62
2018-06-21T07:38:53.984Z,88.91
2018-06-21T07:39:53.980Z,89.20
2018-06-21T07:40:53.977Z,89.44
2018-06-21T07:41:53.978Z,89.92
2018-06-21T07:42:53.983Z,89.44
2018-06-21T07:43:53.983Z,89.92
2018-06-21T07:44:53.985Z,89.83
2018-06-21T07:45:53.985Z,90.12
2018-06-21T07:46:53.999Z,89.54
2018-06-21T07:47:53.981Z,90.50
2018-06-21T07:48:53.981Z,89.25
2018-06-21T07:49:53.982Z,89.92
2018-06-21T07:50:53.987Z,89.29
2018-06-21T07:51:53.988Z,89.20
2018-06-21T07:52:53.986Z,88.33
2018-06-21T07:53:54.051Z,87.60
2018-06-21T07:54:53.983Z,86.59
2018-06-21T07:55:53.985Z,86.11
2018-06-21T07:56:53.988Z,85.09
2018-06-21T07:57:53.988Z,84.36
2018-06-21T07:58:53.986Z,84.31
2018-06-21T07:59:53.986Z,82.76
2018-06-21T08:00:53.987Z,81.32
2018-06-21T08:01:53.990Z,81.70
2018-06-21T08:02:53.995Z,80.74
2018-06-21T08:03:53.998Z,80.97
2018-06-21T08:04:53.992Z,80.10
2018-06-21T08:05:53.999Z,80.39
2018-06-21T08:06:54.003Z,79.91
2018-06-21T08:07:54.002Z,79.91
2018-06-21T08:08:54.004Z,79.49
2018-06-21T08:09:54.008Z,79.44
2018-06-21T08:10:54.009Z,79.83
2018-06-21T08:11:54.007Z,80.22
2018-06-21T08:12:54.067Z,80.79
2018-06-21T08:13:54.017Z,80.79
2018-06-21T08:14:54.017Z,80.12
2018-06-21T08:15:54.016Z,80.02
2018-06-21T08:16:54.019Z,80.45
2018-06-21T08:17:54.022Z,79.81
2018-06-21T08:18:54.030Z,79.08
2018-06-21T08:19:54.030Z,77.83
2018-06-21T08:20:54.035Z,77.38
2018-06-21T08:21:54.038Z,77.48
2018-06-21T08:22:54.035Z,76.90
2018-06-21T08:23:54.037Z,76.42
2018-06-21T08:24:54.041Z,76.61
2018-06-21T08:25:54.046Z,75.87
2018-06-21T08:26:54.150Z,75.58
2018-06-21T08:27:54.055Z,74.55
2018-06-21T08:28:54.053Z,74.30
2018-06-21T08:29:54.056Z,71.86
2018-06-21T08:30:54.064Z,70.25
2018-06-21T08:31:54.067Z,68.25
2018-06-21T08:32:54.071Z,66.11
2018-06-21T08:33:54.077Z,63.71
2018-06-21T08:34:54.077Z,61.83
2018-06-21T08:35:54.084Z,62.55
2018-06-21T08:36:54.088Z,63.68
2018-06-21T08:37:54.094Z,63.82
2018-06-21T08:38:54.110Z,64.20
2018-06-21T08:39:54.111Z,64.92
2018-06-21T08:40:54.114Z,64.17
2018-06-21T08:41:54.121Z,63.39
2018-06-21T08:42:54.123Z,62.29
2018-06-21T08:43:54.128Z,61.71
2018-06-21T08:44:54.139Z,62.23
2018-06-21T08:45:54.200Z,63.65
2018-06-21T08:46:54.148Z,64.30
2018-06-21T08:47:54.154Z,66.02
2018-06-21T08:48:54.161Z,66.37
2018-06-21T08:49:54.167Z,66.82
2018-06-21T08:50:54.179Z,67.40
2018-06-21T08:51:54.212Z,67.69
2018-06-21T08:52:54.190Z,68.33
2018-06-21T08:53:54.196Z,68.52
2018-06-21T08:54:54.198Z,67.76
2018-06-21T08:55:54.202Z,66.56
2018-06-21T08:56:54.208Z,66.75
2018-06-21T08:57:54.215Z,66.53
2018-06-21T08:58:54.224Z,66.75
2018-06-21T08:59:54.229Z,65.92
2018-06-21T09:00:54.231Z,64.89
2018-06-21T09:01:54.240Z,63.98
2018-06-21T09:02:54.247Z,62.52
2018-06-21T09:03:54.337Z,62.49
2018-06-21T09:04:54.258Z,63.27
2018-06-21T09:05:54.265Z,63.30
2018-06-21T09:06:54.265Z,62.01
2018-06-21T09:07:54.270Z,61.39
2018-06-21T09:08:54.279Z,60.30
2018-06-21T09:09:54.283Z,60.17
2018-06-21T09:10:54.296Z,60.94
2018-06-21T09:11:54.301Z,61.59
2018-06-21T09:12:54.310Z,62.49
2018-06-21T09:13:54.313Z,61.24
2018-06-21T09:14:54.315Z,60.55
2018-06-21T09:15:54.322Z,60.17
2018-06-21T09:16:54.333Z,59.57
2018-06-21T09:17:54.339Z,57.12
2018-06-21T09:18:54.342Z,55.22
2018-06-21T09:19:54.348Z,54.97
2018-06-21T09:20:54.355Z,54.83
2018-06-21T09:21:54.362Z,53.31
2018-06-21T09:22:54.376Z,51.76
2018-06-21T09:23:54.383Z,48.71
2018-06-21T09:24:54.392Z,48.88
2018-06-21T09:25:54.401Z,48.19
2018-06-21T09:26:54.409Z,48.05
2018-06-21T09:27:54.416Z,48.75
2018-06-21T09:28:54.431Z,49.39
2018-06-21T09:29:54.438Z,50.19
2018-06-21T09:30:54.452Z,51.62
2018-06-21T09:31:54.461Z,52.83
2018-06-21T09:32:54.466Z,54.86
2018-06-21T09:33:54.477Z,55.52
2018-06-21T09:34:54.489Z,55.89
2018-06-21T09:35:54.499Z,55.15
2018-06-21T09:36:54.506Z,53.21
2018-06-21T09:37:54.516Z,51.24
2018-06-21T09:38:54.520Z,48.28
2018-06-21T09:39:54.529Z,47.38
2018-06-21T09:40:54.540Z,47.05
2018-06-21T09:41:54.588Z,47.51
2018-06-21T09:42:54.566Z,47.36
2018-06-21T09:44:03.821Z,48.07
2018-06-21T09:44:54.588Z,48.49
2018-06-21T09:45:54.598Z,49.73
2018-06-21T09:46:54.627Z,50.62
2018-06-21T09:47:54.614Z,52.06
2018-06-21T09:48:54.631Z,53.75
2018-06-21T09:49:54.638Z,55.36
2018-06-21T09:50:54.643Z,55.69
2018-06-21T09:51:54.652Z,54.74
2018-06-21T09:52:54.660Z,52.84
2018-06-21T09:53:54.669Z,50.43
2018-06-21T09:54:54.683Z,49.32
2018-06-21T09:55:54.692Z,49.56
2018-06-21T09:56:54.705Z,49.15
2018-06-21T09:57:54.713Z,49.39
2018-06-21T09:58:54.719Z,49.34
2018-06-21T09:59:54.726Z,50.89
2018-06-21T10:00:54.736Z,49.87
2018-06-21T10:01:54.747Z,49.56
2018-06-21T10:02:54.763Z,48.27
2018-06-21T10:03:54.770Z,46.49
2018-06-21T10:04:54.776Z,45.09
2018-06-21T10:05:54.786Z,43.99
2018-06-21T10:06:54.801Z,42.30
2018-06-21T10:07:54.812Z,41.35
2018-06-21T10:08:54.823Z,40.72
2018-06-21T10:09:54.836Z,39.62
2018-06-21T10:10:54.845Z,39.07
2018-06-21T10:11:54.857Z,38.84
2018-06-21T10:12:54.871Z,38.75
2018-06-21T10:13:54.886Z,38.78
2018-06-21T10:14:54.904Z,38.88
2018-06-21T10:15:54.920Z,37.15
2018-06-21T10:16:54.932Z,36.29
2018-06-21T10:17:54.948Z,36.11
2018-06-21T10:18:54.959Z,35.14
2018-06-21T10:19:55.030Z,36.05
2018-06-21T10:20:54.995Z,34.85
2018-06-21T10:21:55.010Z,34.25
2018-06-21T10:22:55.022Z,34.41
2018-06-21T10:23:55.038Z,35.01
2018-06-21T10:24:55.055Z,35.75
2018-06-21T10:25:55.071Z,36.78
2018-06-21T10:26:55.092Z,37.22
2018-06-21T10:27:55.107Z,37.14
2018-06-21T10:28:55.123Z,37.01
2018-06-21T10:29:55.138Z,37.75
2018-06-21T10:30:55.147Z,39.37
2018-06-21T10:31:55.163Z,39.28
2018-06-21T10:32:55.176Z,38.65
2018-06-21T10:33:55.191Z,38.57
2018-06-21T10:34:55.266Z,37.17
2018-06-21T10:35:55.224Z,38.20
2018-06-21T10:36:55.233Z,38.26
2018-06-21T10:37:55.247Z,39.22
2018-06-21T10:38:55.266Z,39.70
2018-06-21T10:39:55.278Z,39.20
2018-06-21T10:40:55.292Z,38.73
2018-06-21T10:41:55.307Z,37.85
2018-06-21T10:42:55.314Z,37.37
2018-06-21T10:43:55.328Z,38.32
2018-06-21T10:44:55.340Z,38.56
2018-06-21T10:45:55.356Z,38.24
2018-06-21T10:46:55.372Z,38.57
2018-06-21T10:47:55.384Z,38.59
2018-06-21T10:48:55.397Z,38.40
2018-06-21T10:49:55.410Z,38.04
2018-06-21T10:50:55.417Z,36.72
2018-06-21T10:51:55.433Z,35.48
2018-06-21T10:52:55.448Z,34.54
2018-06-21T10:53:55.462Z,33.92
2018-06-21T10:54:55.473Z,33.72
2018-06-21T10:55:55.485Z,33.34
2018-06-21T10:56:55.501Z,33.38
2018-06-21T10:57:55.515Z,32.53
2018-06-21T10:58:55.534Z,32.22
2018-06-21T10:59:55.549Z,32.37
2018-06-21T11:00:55.563Z,33.26
2018-06-21T11:01:55.581Z,32.66
2018-06-21T11:02:55.589Z,33.17
2018-06-21T11:03:55.608Z,33.18
2018-06-21T11:04:55.618Z,32.40
2018-06-21T11:05:55.634Z,31.77
2018-06-21T11:06:55.655Z,33.12
2018-06-21T11:07:55.668Z,33.01
2018-06-21T11:08:55.680Z,33.82
2018-06-21T11:09:55.695Z,32.56
2018-06-21T11:10:55.716Z,31.67
2018-06-21T11:11:55.730Z,31.26
2018-06-21T11:12:55.746Z,31.95
2018-06-21T11:13:55.778Z,32.06
2018-06-21T11:14:55.775Z,31.95
2018-06-21T11:15:55.788Z,31.59
2018-06-21T11:16:55.841Z,32.05
2018-06-21T11:17:55.821Z,34.03
2018-06-21T11:18:55.841Z,34.24
2018-06-21T11:19:55.855Z,34.44
2018-06-21T11:20:55.873Z,33.17
2018-06-21T11:21:55.889Z,32.94
2018-06-21T11:22:55.897Z,34.31
2018-06-21T11:23:55.913Z,34.35
2018-06-21T11:24:55.930Z,34.53
2018-06-21T11:25:55.946Z,34.88
2018-06-21T11:26:55.954Z,35.72
2018-06-21T11:27:56.027Z,37.28
2018-06-21T11:28:55.987Z,37.07
2018-06-21T11:29:55.992Z,37.24
2018-06-21T11:30:56.010Z,38.12
2018-06-21T11:31:56.024Z,38.40
2018-06-21T11:32:56.038Z,38.78
2018-06-21T11:33:56.044Z,38.37
2018-06-21T11:34:56.056Z,38.27
2018-06-21T11:35:56.062Z,38.64
2018-06-21T11:36:56.073Z,38.91
2018-06-21T11:37:56.082Z,39.78
2018-06-21T11:38:56.096Z,40.07
2018-06-21T11:39:56.105Z,40.73
2018-06-21T11:40:56.110Z,42.35
2018-06-21T11:41:56.117Z,43.05
2018-06-21T11:42:56.131Z,43.54
2018-06-21T11:43:56.137Z,43.44
2018-06-21T11:44:56.145Z,43.32
2018-06-21T11:45:56.152Z,43.71
2018-06-21T11:46:56.155Z,44.57
2018-06-21T11:47:56.164Z,44.67
2018-06-21T11:48:56.169Z,45.16
2018-06-21T11:49:56.175Z,46.32
2018-06-21T11:50:56.186Z,46.12
2018-06-21T11:51:56.194Z,46.12
2018-06-21T11:52:56.203Z,46.22
2018-06-21T11:53:56.205Z,46.12
2018-06-21T11:54:56.205Z,45.35
2018-06-21T11:55:56.210Z,46.03
2018-06-21T11:56:56.221Z,46.22
2018-06-21T11:57:56.227Z,46.51
2018-06-21T11:58:56.226Z,45.93
2018-06-21T11:59:56.230Z,46.12
2018-06-21T12:00:56.239Z,46.42
2018-06-21T12:01:56.241Z,46.12
2018-06-21T12:02:56.250Z,44.87
2018-06-21T12:03:56.256Z,45.64
2018-06-21T12:04:56.261Z,45.08
2018-06-21T12:05:56.264Z,44.29
2018-06-21T12:06:56.264Z,44.67
2018-06-21T12:07:56.268Z,43.98
2018-06-21T12:08:56.273Z,44.36
2018-06-21T12:09:56.277Z,43.78
2018-06-21T12:10:56.286Z,44.15
2018-06-21T12:11:56.291Z,44.53
2018-06-21T12:12:56.292Z,44.73
2018-06-21T12:13:56.294Z,44.92
2018-06-21T12:14:56.304Z,45.11
2018-06-21T12:15:56.307Z,46.15
2018-06-21T12:16:56.309Z,46.56
2018-06-21T12:17:56.313Z,47.24
2018-06-21T12:18:56.314Z,47.91
2018-06-21T12:19:56.358Z,46.66
2018-06-21T12:20:56.324Z,46.06
2018-06-21T12:21:56.324Z,45.57
2018-06-21T12:22:56.333Z,46.06
2018-06-21T12:23:56.335Z,46.06
2018-06-21T12:24:56.344Z,46.08
2018-06-21T12:25:56.348Z,46.17
2018-06-21T12:26:56.342Z,45.59
2018-06-21T12:27:56.345Z,44.92
2018-06-21T12:28:56.352Z,45.21
2018-06-21T12:29:56.357Z,45.59
2018-06-21T12:30:56.355Z,44.43
2018-06-21T12:31:56.381Z,44.82
2018-06-21T12:32:56.364Z,45.31
2018-06-21T12:33:56.365Z,45.21
2018-06-21T12:34:56.372Z,44.82
2018-06-21T12:35:56.374Z,44.73
2018-06-21T12:36:56.377Z,44.94
2018-06-21T12:37:56.405Z,45.59
2018-06-21T12:38:56.380Z,45.31
2018-06-21T12:39:56.382Z,44.92
2018-06-21T12:40:56.385Z,44.80
2018-06-21T12:41:56.389Z,44.82
2018-06-21T12:42:56.398Z,44.63
2018-06-21T12:43:56.400Z,43.95
2018-06-21T12:44:56.398Z,43.66
2018-06-21T12:45:56.403Z,43.49
2018-06-21T12:46:56.412Z,43.47
2018-06-21T12:47:56.702Z,43.66
2018-06-21T12:48:56.415Z,43.57
2018-06-21T12:49:56.419Z,43.85
2018-06-21T12:50:56.417Z,43.37
2018-06-21T12:51:56.421Z,43.18
2018-06-21T12:52:56.467Z,43.95